sensor_id;sensor_type;location;lat;lon;timestamp;P1;durP1;ratioP1;P2;durP2;ratioP2
32613;SDS011;19031;51.400;6.770;2024-01-15T00:01:52;51.08;;;21.65;;
32613;SDS011;19031;51.400;6.770;2024-01-15T00:04:18;52.10;;;22.38;;
32613;SDS011;19031;51.400;6.770;2024-01-15T00:06:43;52.97;;;22.30;;
32613;SDS011;19031;51.400;6.770;2024-01-15T00:09:09;52.10;;;22.80;;
32613;SDS011;19031;51.400;6.770;2024-01-15T00:11:35;55.47;;;22.08;;
32613;SDS011;19031;51.400;6.770;2024-01-15T00:14:00;57.35;;;24.30;;
32613;SDS011;19031;51.400;6.770;2024-01-15T00:16:26;53.08;;;24.73;;
32613;SDS011;19031;51.400;6.770;2024-01-15T00:18:51;51.90;;;21.75;;
32613;SDS011;19031;51.400;6.770;2024-01-15T00:21:17;51.38;;;22.65;;
32613;SDS011;19031;51.400;6.770;2024-01-15T00:23:42;54.47;;;23.67;;
32613;SDS011;19031;51.400;6.770;2024-01-15T00:26:11;48.45;;;22.13;;
32613;SDS011;19031;51.400;6.770;2024-01-15T00:28:37;52.83;;;21.88;;
32613;SDS011;19031;51.400;6.770;2024-01-15T00:31:06;50.35;;;21.33;;
32613;SDS011;19031;51.400;6.770;2024-01-15T00:33:31;51.70;;;23.45;;
32613;SDS011;19031;51.400;6.770;2024-01-15T00:35:57;57.63;;;25.10;;
32613;SDS011;19031;51.400;6.770;2024-01-15T00:38:22;46.95;;;22.05;;
32613;SDS011;19031;51.400;6.770;2024-01-15T00:40:48;54.15;;;23.48;;
32613;SDS011;19031;51.400;6.770;2024-01-15T00:43:14;52.33;;;23.20;;
32613;SDS011;19031;51.400;6.770;2024-01-15T00:45:40;51.13;;;23.27;;
32613;SDS011;19031;51.400;6.770;2024-01-15T00:48:05;54.28;;;24.38;;
32613;SDS011;19031;51.400;6.770;2024-01-15T00:50:31;47.83;;;22.70;;
32613;SDS011;19031;51.400;6.770;2024-01-15T00:52:57;44.80;;;21.33;;
32613;SDS011;19031;51.400;6.770;2024-01-15T00:55:22;50.63;;;22.23;;
32613;SDS011;19031;51.400;6.770;2024-01-15T00:57:48;51.63;;;23.25;;
32613;SDS011;19031;51.400;6.770;2024-01-15T01:00:13;47.60;;;22.80;;
32613;SDS011;19031;51.400;6.770;2024-01-15T01:02:39;45.03;;;20.88;;
32613;SDS011;19031;51.400;6.770;2024-01-15T01:05:05;48.10;;;21.65;;
32613;SDS011;19031;51.400;6.770;2024-01-15T01:07:30;46.35;;;21.63;;
32613;SDS011;19031;51.400;6.770;2024-01-15T01:09:56;46.70;;;21.92;;
32613;SDS011;19031;51.400;6.770;2024-01-15T01:12:21;47.75;;;21.85;;
32613;SDS011;19031;51.400;6.770;2024-01-15T01:14:47;45.72;;;22.67;;
32613;SDS011;19031;51.400;6.770;2024-01-15T01:17:12;49.17;;;22.70;;
32613;SDS011;19031;51.400;6.770;2024-01-15T01:19:38;51.35;;;24.35;;
32613;SDS011;19031;51.400;6.770;2024-01-15T01:22:04;48.05;;;23.67;;
32613;SDS011;19031;51.400;6.770;2024-01-15T01:24:30;41.88;;;22.13;;
32613;SDS011;19031;51.400;6.770;2024-01-15T01:26:55;52.40;;;23.77;;
32613;SDS011;19031;51.400;6.770;2024-01-15T01:29:21;52.90;;;23.52;;
32613;SDS011;19031;51.400;6.770;2024-01-15T01:31:47;54.00;;;23.88;;
32613;SDS011;19031;51.400;6.770;2024-01-15T01:34:14;51.15;;;22.85;;
32613;SDS011;19031;51.400;6.770;2024-01-15T01:36:40;47.38;;;22.40;;
32613;SDS011;19031;51.400;6.770;2024-01-15T01:39:06;48.15;;;21.85;;
32613;SDS011;19031;51.400;6.770;2024-01-15T01:41:32;49.10;;;22.40;;
32613;SDS011;19031;51.400;6.770;2024-01-15T01:43:57;47.45;;;22.73;;
32613;SDS011;19031;51.400;6.770;2024-01-15T01:46:23;40.30;;;20.00;;
32613;SDS011;19031;51.400;6.770;2024-01-15T01:48:51;43.15;;;20.17;;
32613;SDS011;19031;51.400;6.770;2024-01-15T01:51:17;46.38;;;21.40;;
32613;SDS011;19031;51.400;6.770;2024-01-15T01:53:44;49.85;;;21.58;;
32613;SDS011;19031;51.400;6.770;2024-01-15T01:56:10;49.58;;;21.75;;
32613;SDS011;19031;51.400;6.770;2024-01-15T01:58:36;42.80;;;19.42;;
32613;SDS011;19031;51.400;6.770;2024-01-15T02:01:02;48.90;;;20.15;;
32613;SDS011;19031;51.400;6.770;2024-01-15T02:03:30;39.85;;;19.58;;
32613;SDS011;19031;51.400;6.770;2024-01-15T02:05:56;46.97;;;19.38;;
32613;SDS011;19031;51.400;6.770;2024-01-15T02:08:22;43.70;;;17.52;;
32613;SDS011;19031;51.400;6.770;2024-01-15T02:10:48;45.20;;;19.85;;
32613;SDS011;19031;51.400;6.770;2024-01-15T02:13:13;43.53;;;20.55;;
32613;SDS011;19031;51.400;6.770;2024-01-15T02:15:39;38.55;;;18.30;;
32613;SDS011;19031;51.400;6.770;2024-01-15T02:18:06;44.30;;;19.00;;
32613;SDS011;19031;51.400;6.770;2024-01-15T02:20:34;43.53;;;18.45;;
32613;SDS011;19031;51.400;6.770;2024-01-15T02:25:40;39.80;;;18.50;;
32613;SDS011;19031;51.400;6.770;2024-01-15T02:28:07;39.90;;;17.20;;
32613;SDS011;19031;51.400;6.770;2024-01-15T02:30:36;39.60;;;17.25;;
32613;SDS011;19031;51.400;6.770;2024-01-15T02:33:06;39.38;;;18.90;;
32613;SDS011;19031;51.400;6.770;2024-01-15T02:35:33;39.30;;;17.08;;
32613;SDS011;19031;51.400;6.770;2024-01-15T02:37:59;38.13;;;17.48;;
32613;SDS011;19031;51.400;6.770;2024-01-15T02:40:24;39.10;;;16.33;;
32613;SDS011;19031;51.400;6.770;2024-01-15T02:42:50;29.95;;;14.07;;
32613;SDS011;19031;51.400;6.770;2024-01-15T02:45:17;36.70;;;16.42;;
32613;SDS011;19031;51.400;6.770;2024-01-15T02:47:42;33.70;;;14.18;;
32613;SDS011;19031;51.400;6.770;2024-01-15T02:50:08;30.30;;;15.00;;
32613;SDS011;19031;51.400;6.770;2024-01-15T02:52:34;35.28;;;13.75;;
32613;SDS011;19031;51.400;6.770;2024-01-15T02:54:59;31.67;;;15.85;;
32613;SDS011;19031;51.400;6.770;2024-01-15T02:57:25;33.95;;;15.38;;
32613;SDS011;19031;51.400;6.770;2024-01-15T02:59:50;30.50;;;14.63;;
32613;SDS011;19031;51.400;6.770;2024-01-15T03:02:16;28.20;;;13.80;;
32613;SDS011;19031;51.400;6.770;2024-01-15T03:04:44;35.55;;;13.77;;
32613;SDS011;19031;51.400;6.770;2024-01-15T03:07:10;47.40;;;14.50;;
32613;SDS011;19031;51.400;6.770;2024-01-15T03:09:36;23.92;;;12.48;;
32613;SDS011;19031;51.400;6.770;2024-01-15T03:12:01;24.33;;;12.48;;
32613;SDS011;19031;51.400;6.770;2024-01-15T03:14:27;25.48;;;12.77;;
32613;SDS011;19031;51.400;6.770;2024-01-15T03:16:52;27.85;;;13.35;;
32613;SDS011;19031;51.400;6.770;2024-01-15T03:19:18;30.75;;;12.95;;
32613;SDS011;19031;51.400;6.770;2024-01-15T03:21:44;29.05;;;13.55;;
32613;SDS011;19031;51.400;6.770;2024-01-15T03:24:09;31.33;;;14.73;;
32613;SDS011;19031;51.400;6.770;2024-01-15T03:26:35;28.35;;;14.77;;
32613;SDS011;19031;51.400;6.770;2024-01-15T03:29:00;27.70;;;14.35;;
32613;SDS011;19031;51.400;6.770;2024-01-15T03:31:26;34.38;;;16.52;;
32613;SDS011;19031;51.400;6.770;2024-01-15T03:33:52;29.73;;;14.90;;
32613;SDS011;19031;51.400;6.770;2024-01-15T03:36:17;28.77;;;14.52;;
32613;SDS011;19031;51.400;6.770;2024-01-15T03:38:43;34.67;;;15.73;;
32613;SDS011;19031;51.400;6.770;2024-01-15T03:41:09;28.00;;;15.55;;
32613;SDS011;19031;51.400;6.770;2024-01-15T03:43:34;27.23;;;14.07;;
32613;SDS011;19031;51.400;6.770;2024-01-15T03:46:00;36.17;;;16.92;;
32613;SDS011;19031;51.400;6.770;2024-01-15T03:48:27;31.10;;;15.90;;
32613;SDS011;19031;51.400;6.770;2024-01-15T03:50:52;34.60;;;16.20;;
32613;SDS011;19031;51.400;6.770;2024-01-15T03:53:18;34.42;;;17.27;;
32613;SDS011;19031;51.400;6.770;2024-01-15T03:55:43;28.67;;;15.60;;
32613;SDS011;19031;51.400;6.770;2024-01-15T03:58:09;27.67;;;15.80;;
32613;SDS011;19031;51.400;6.770;2024-01-15T04:00:34;29.40;;;15.93;;
32613;SDS011;19031;51.400;6.770;2024-01-15T04:03:00;31.38;;;15.63;;
32613;SDS011;19031;51.400;6.770;2024-01-15T04:05:26;29.40;;;15.70;;
32613;SDS011;19031;51.400;6.770;2024-01-15T04:07:51;34.08;;;17.38;;
32613;SDS011;19031;51.400;6.770;2024-01-15T04:10:17;34.10;;;16.23;;
32613;SDS011;19031;51.400;6.770;2024-01-15T04:12:43;34.38;;;15.32;;
32613;SDS011;19031;51.400;6.770;2024-01-15T04:15:11;29.70;;;15.40;;
32613;SDS011;19031;51.400;6.770;2024-01-15T04:17:37;31.50;;;15.25;;
32613;SDS011;19031;51.400;6.770;2024-01-15T04:20:03;28.67;;;16.23;;
32613;SDS011;19031;51.400;6.770;2024-01-15T04:22:28;26.63;;;14.75;;
32613;SDS011;19031;51.400;6.770;2024-01-15T04:24:54;22.08;;;13.73;;
32613;SDS011;19031;51.400;6.770;2024-01-15T04:27:19;28.33;;;14.75;;
32613;SDS011;19031;51.400;6.770;2024-01-15T04:29:45;28.02;;;13.73;;
32613;SDS011;19031;51.400;6.770;2024-01-15T04:32:11;27.05;;;14.95;;
32613;SDS011;19031;51.400;6.770;2024-01-15T04:34:36;29.58;;;14.18;;
32613;SDS011;19031;51.400;6.770;2024-01-15T04:37:03;29.50;;;14.60;;
32613;SDS011;19031;51.400;6.770;2024-01-15T04:39:28;25.85;;;12.77;;
32613;SDS011;19031;51.400;6.770;2024-01-15T04:41:54;22.52;;;13.02;;
32613;SDS011;19031;51.400;6.770;2024-01-15T04:44:19;22.98;;;13.45;;
32613;SDS011;19031;51.400;6.770;2024-01-15T04:46:45;28.73;;;14.00;;
32613;SDS011;19031;51.400;6.770;2024-01-15T04:49:11;28.15;;;14.57;;
32613;SDS011;19031;51.400;6.770;2024-01-15T04:51:37;31.70;;;15.10;;
32613;SDS011;19031;51.400;6.770;2024-01-15T04:54:02;26.50;;;15.05;;
32613;SDS011;19031;51.400;6.770;2024-01-15T04:56:28;24.77;;;12.95;;
32613;SDS011;19031;51.400;6.770;2024-01-15T04:58:54;25.80;;;14.73;;
32613;SDS011;19031;51.400;6.770;2024-01-15T05:01:19;29.20;;;14.73;;
32613;SDS011;19031;51.400;6.770;2024-01-15T05:03:45;21.60;;;12.30;;
32613;SDS011;19031;51.400;6.770;2024-01-15T05:06:10;24.92;;;12.30;;
32613;SDS011;19031;51.400;6.770;2024-01-15T05:08:36;27.10;;;12.85;;
32613;SDS011;19031;51.400;6.770;2024-01-15T05:11:01;23.92;;;11.90;;
32613;SDS011;19031;51.400;6.770;2024-01-15T05:13:27;24.23;;;12.45;;
32613;SDS011;19031;51.400;6.770;2024-01-15T05:15:53;27.73;;;12.38;;
32613;SDS011;19031;51.400;6.770;2024-01-15T05:18:18;22.77;;;11.98;;
32613;SDS011;19031;51.400;6.770;2024-01-15T05:20:44;27.27;;;12.40;;
32613;SDS011;19031;51.400;6.770;2024-01-15T05:23:10;25.35;;;12.35;;
32613;SDS011;19031;51.400;6.770;2024-01-15T05:25:35;28.65;;;13.13;;
32613;SDS011;19031;51.400;6.770;2024-01-15T05:28:01;25.55;;;12.35;;
32613;SDS011;19031;51.400;6.770;2024-01-15T05:30:27;21.65;;;12.02;;
32613;SDS011;19031;51.400;6.770;2024-01-15T05:32:53;21.23;;;12.18;;
32613;SDS011;19031;51.400;6.770;2024-01-15T05:35:19;27.77;;;12.88;;
32613;SDS011;19031;51.400;6.770;2024-01-15T05:37:45;25.67;;;12.23;;
32613;SDS011;19031;51.400;6.770;2024-01-15T05:40:11;23.38;;;12.40;;
32613;SDS011;19031;51.400;6.770;2024-01-15T05:42:38;21.50;;;12.13;;
32613;SDS011;19031;51.400;6.770;2024-01-15T05:45:04;23.17;;;11.60;;
32613;SDS011;19031;51.400;6.770;2024-01-15T05:47:30;27.98;;;12.65;;
32613;SDS011;19031;51.400;6.770;2024-01-15T05:49:56;21.10;;;11.63;;
32613;SDS011;19031;51.400;6.770;2024-01-15T05:52:22;24.98;;;11.98;;
32613;SDS011;19031;51.400;6.770;2024-01-15T05:54:48;21.63;;;10.18;;
32613;SDS011;19031;51.400;6.770;2024-01-15T05:57:14;22.63;;;11.05;;
32613;SDS011;19031;51.400;6.770;2024-01-15T05:59:40;22.83;;;10.38;;
32613;SDS011;19031;51.400;6.770;2024-01-15T06:02:05;15.55;;;9.27;;
32613;SDS011;19031;51.400;6.770;2024-01-15T06:04:31;19.67;;;10.02;;
32613;SDS011;19031;51.400;6.770;2024-01-15T06:06:56;19.23;;;9.35;;
32613;SDS011;19031;51.400;6.770;2024-01-15T06:09:22;19.70;;;9.88;;
32613;SDS011;19031;51.400;6.770;2024-01-15T06:11:48;17.52;;;9.13;;
32613;SDS011;19031;51.400;6.770;2024-01-15T06:14:13;17.83;;;8.70;;
32613;SDS011;19031;51.400;6.770;2024-01-15T06:16:39;15.80;;;8.35;;
32613;SDS011;19031;51.400;6.770;2024-01-15T06:19:04;13.93;;;7.35;;
32613;SDS011;19031;51.400;6.770;2024-01-15T06:21:30;18.10;;;8.20;;
32613;SDS011;19031;51.400;6.770;2024-01-15T06:23:55;18.33;;;8.23;;
32613;SDS011;19031;51.400;6.770;2024-01-15T06:26:21;14.65;;;8.32;;
32613;SDS011;19031;51.400;6.770;2024-01-15T06:28:47;16.13;;;7.05;;
32613;SDS011;19031;51.400;6.770;2024-01-15T06:31:13;14.23;;;6.53;;
32613;SDS011;19031;51.400;6.770;2024-01-15T06:33:38;15.38;;;7.05;;
32613;SDS011;19031;51.400;6.770;2024-01-15T06:36:04;17.50;;;6.75;;
32613;SDS011;19031;51.400;6.770;2024-01-15T06:38:30;11.98;;;5.72;;
32613;SDS011;19031;51.400;6.770;2024-01-15T06:40:56;11.35;;;5.38;;
32613;SDS011;19031;51.400;6.770;2024-01-15T06:43:22;10.02;;;5.15;;
32613;SDS011;19031;51.400;6.770;2024-01-15T06:45:47;10.82;;;4.60;;
32613;SDS011;19031;51.400;6.770;2024-01-15T06:48:13;10.25;;;3.50;;
32613;SDS011;19031;51.400;6.770;2024-01-15T06:50:41;11.23;;;4.43;;
32613;SDS011;19031;51.400;6.770;2024-01-15T06:53:07;7.28;;;3.83;;
32613;SDS011;19031;51.400;6.770;2024-01-15T06:55:33;6.85;;;4.30;;
32613;SDS011;19031;51.400;6.770;2024-01-15T06:57:59;9.68;;;4.20;;
32613;SDS011;19031;51.400;6.770;2024-01-15T07:00:25;7.18;;;4.05;;
32613;SDS011;19031;51.400;6.770;2024-01-15T07:02:52;8.38;;;4.03;;
32613;SDS011;19031;51.400;6.770;2024-01-15T07:05:18;10.23;;;4.10;;
32613;SDS011;19031;51.400;6.770;2024-01-15T07:07:45;7.95;;;3.88;;
32613;SDS011;19031;51.400;6.770;2024-01-15T07:10:12;8.63;;;4.22;;
32613;SDS011;19031;51.400;6.770;2024-01-15T07:12:38;12.40;;;4.80;;
32613;SDS011;19031;51.400;6.770;2024-01-15T07:15:03;9.23;;;4.30;;
32613;SDS011;19031;51.400;6.770;2024-01-15T07:17:32;8.45;;;4.20;;
32613;SDS011;19031;51.400;6.770;2024-01-15T07:19:57;7.05;;;3.88;;
32613;SDS011;19031;51.400;6.770;2024-01-15T07:22:23;10.95;;;4.85;;
32613;SDS011;19031;51.400;6.770;2024-01-15T07:24:48;10.57;;;5.55;;
32613;SDS011;19031;51.400;6.770;2024-01-15T07:27:14;15.20;;;7.13;;
32613;SDS011;19031;51.400;6.770;2024-01-15T07:29:39;15.88;;;8.50;;
32613;SDS011;19031;51.400;6.770;2024-01-15T07:32:05;15.98;;;8.88;;
32613;SDS011;19031;51.400;6.770;2024-01-15T07:34:32;16.63;;;8.30;;
32613;SDS011;19031;51.400;6.770;2024-01-15T07:36:58;17.23;;;8.98;;
32613;SDS011;19031;51.400;6.770;2024-01-15T07:39:23;24.15;;;11.32;;
32613;SDS011;19031;51.400;6.770;2024-01-15T07:41:50;21.13;;;11.85;;
32613;SDS011;19031;51.400;6.770;2024-01-15T07:44:16;27.35;;;12.07;;
32613;SDS011;19031;51.400;6.770;2024-01-15T07:46:45;24.95;;;11.38;;
32613;SDS011;19031;51.400;6.770;2024-01-15T07:49:11;18.50;;;11.63;;
32613;SDS011;19031;51.400;6.770;2024-01-15T07:51:37;24.27;;;12.98;;
32613;SDS011;19031;51.400;6.770;2024-01-15T07:54:05;20.60;;;10.57;;
32613;SDS011;19031;51.400;6.770;2024-01-15T07:56:31;17.90;;;11.73;;
32613;SDS011;19031;51.400;6.770;2024-01-15T07:58:56;21.83;;;11.43;;
32613;SDS011;19031;51.400;6.770;2024-01-15T08:01:22;21.73;;;11.52;;
32613;SDS011;19031;51.400;6.770;2024-01-15T08:03:48;20.30;;;10.77;;
32613;SDS011;19031;51.400;6.770;2024-01-15T08:06:13;22.30;;;12.80;;
32613;SDS011;19031;51.400;6.770;2024-01-15T08:08:39;27.25;;;12.32;;
32613;SDS011;19031;51.400;6.770;2024-01-15T08:11:04;26.13;;;13.82;;
32613;SDS011;19031;51.400;6.770;2024-01-15T08:13:30;18.23;;;11.77;;
32613;SDS011;19031;51.400;6.770;2024-01-15T08:15:55;23.45;;;13.07;;
32613;SDS011;19031;51.400;6.770;2024-01-15T08:18:21;23.10;;;11.65;;
32613;SDS011;19031;51.400;6.770;2024-01-15T08:20:47;18.77;;;12.10;;
32613;SDS011;19031;51.400;6.770;2024-01-15T08:23:12;17.13;;;11.68;;
32613;SDS011;19031;51.400;6.770;2024-01-15T08:25:38;19.85;;;10.77;;
32613;SDS011;19031;51.400;6.770;2024-01-15T08:28:04;18.55;;;11.57;;
32613;SDS011;19031;51.400;6.770;2024-01-15T08:30:29;19.45;;;11.73;;
32613;SDS011;19031;51.400;6.770;2024-01-15T08:32:55;21.90;;;12.40;;
32613;SDS011;19031;51.400;6.770;2024-01-15T08:35:21;20.40;;;11.90;;
32613;SDS011;19031;51.400;6.770;2024-01-15T08:37:51;18.30;;;10.73;;
32613;SDS011;19031;51.400;6.770;2024-01-15T08:40:17;18.02;;;11.13;;
32613;SDS011;19031;51.400;6.770;2024-01-15T08:42:43;14.70;;;9.73;;
32613;SDS011;19031;51.400;6.770;2024-01-15T08:45:10;16.50;;;10.15;;
32613;SDS011;19031;51.400;6.770;2024-01-15T08:47:35;14.13;;;9.32;;
32613;SDS011;19031;51.400;6.770;2024-01-15T08:50:01;15.73;;;10.15;;
32613;SDS011;19031;51.400;6.770;2024-01-15T08:52:28;17.60;;;9.55;;
32613;SDS011;19031;51.400;6.770;2024-01-15T08:54:55;12.18;;;8.95;;
32613;SDS011;19031;51.400;6.770;2024-01-15T08:57:21;11.25;;;7.90;;
32613;SDS011;19031;51.400;6.770;2024-01-15T08:59:47;12.85;;;8.15;;
32613;SDS011;19031;51.400;6.770;2024-01-15T09:02:12;11.55;;;6.80;;
32613;SDS011;19031;51.400;6.770;2024-01-15T09:04:38;12.45;;;8.85;;
32613;SDS011;19031;51.400;6.770;2024-01-15T09:07:04;12.43;;;8.23;;
32613;SDS011;19031;51.400;6.770;2024-01-15T09:09:29;13.68;;;8.57;;
32613;SDS011;19031;51.400;6.770;2024-01-15T09:11:55;16.20;;;8.43;;
32613;SDS011;19031;51.400;6.770;2024-01-15T09:14:21;12.48;;;8.50;;
32613;SDS011;19031;51.400;6.770;2024-01-15T09:16:49;12.30;;;8.48;;
32613;SDS011;19031;51.400;6.770;2024-01-15T09:19:14;10.70;;;7.40;;
32613;SDS011;19031;51.400;6.770;2024-01-15T09:21:40;11.07;;;6.57;;
32613;SDS011;19031;51.400;6.770;2024-01-15T09:24:05;10.65;;;6.97;;
32613;SDS011;19031;51.400;6.770;2024-01-15T09:26:31;15.60;;;8.73;;
32613;SDS011;19031;51.400;6.770;2024-01-15T09:28:57;14.13;;;8.25;;
32613;SDS011;19031;51.400;6.770;2024-01-15T09:31:22;13.88;;;7.18;;
32613;SDS011;19031;51.400;6.770;2024-01-15T09:33:48;12.23;;;7.50;;
32613;SDS011;19031;51.400;6.770;2024-01-15T09:36:16;10.82;;;6.88;;
32613;SDS011;19031;51.400;6.770;2024-01-15T09:38:42;13.45;;;6.85;;
32613;SDS011;19031;51.400;6.770;2024-01-15T09:41:07;10.20;;;6.43;;
32613;SDS011;19031;51.400;6.770;2024-01-15T09:43:33;11.65;;;6.10;;
32613;SDS011;19031;51.400;6.770;2024-01-15T09:45:59;11.18;;;5.80;;
32613;SDS011;19031;51.400;6.770;2024-01-15T09:48:25;11.68;;;7.43;;
32613;SDS011;19031;51.400;6.770;2024-01-15T09:50:51;8.45;;;5.93;;
32613;SDS011;19031;51.400;6.770;2024-01-15T09:53:17;8.70;;;5.90;;
32613;SDS011;19031;51.400;6.770;2024-01-15T09:55:45;8.48;;;5.03;;
32613;SDS011;19031;51.400;6.770;2024-01-15T09:58:11;8.10;;;5.32;;
32613;SDS011;19031;51.400;6.770;2024-01-15T10:00:37;7.65;;;4.88;;
32613;SDS011;19031;51.400;6.770;2024-01-15T10:03:06;11.80;;;6.70;;
32613;SDS011;19031;51.400;6.770;2024-01-15T10:05:33;11.70;;;6.88;;
32613;SDS011;19031;51.400;6.770;2024-01-15T10:07:58;10.43;;;6.32;;
32613;SDS011;19031;51.400;6.770;2024-01-15T10:10:26;9.88;;;6.22;;
32613;SDS011;19031;51.400;6.770;2024-01-15T10:12:52;10.07;;;6.25;;
32613;SDS011;19031;51.400;6.770;2024-01-15T10:15:22;9.48;;;6.60;;
32613;SDS011;19031;51.400;6.770;2024-01-15T10:17:48;11.35;;;5.88;;
32613;SDS011;19031;51.400;6.770;2024-01-15T10:20:14;8.15;;;5.55;;
32613;SDS011;19031;51.400;6.770;2024-01-15T10:22:40;12.00;;;5.65;;
32613;SDS011;19031;51.400;6.770;2024-01-15T10:25:09;9.13;;;6.13;;
32613;SDS011;19031;51.400;6.770;2024-01-15T10:27:36;7.25;;;5.00;;
32613;SDS011;19031;51.400;6.770;2024-01-15T10:30:01;10.07;;;5.13;;
32613;SDS011;19031;51.400;6.770;2024-01-15T10:32:28;7.45;;;5.38;;
32613;SDS011;19031;51.400;6.770;2024-01-15T10:34:54;8.60;;;5.53;;
32613;SDS011;19031;51.400;6.770;2024-01-15T10:37:19;11.90;;;5.55;;
32613;SDS011;19031;51.400;6.770;2024-01-15T10:39:46;8.77;;;5.05;;
32613;SDS011;19031;51.400;6.770;2024-01-15T10:42:11;7.95;;;5.20;;
32613;SDS011;19031;51.400;6.770;2024-01-15T10:44:37;7.35;;;5.00;;
32613;SDS011;19031;51.400;6.770;2024-01-15T10:47:03;6.78;;;4.57;;
32613;SDS011;19031;51.400;6.770;2024-01-15T10:49:29;9.98;;;5.53;;
32613;SDS011;19031;51.400;6.770;2024-01-15T10:51:55;10.65;;;5.97;;
32613;SDS011;19031;51.400;6.770;2024-01-15T10:54:21;11.77;;;6.70;;
32613;SDS011;19031;51.400;6.770;2024-01-15T10:56:48;15.55;;;7.10;;
32613;SDS011;19031;51.400;6.770;2024-01-15T10:59:15;11.85;;;6.82;;
32613;SDS011;19031;51.400;6.770;2024-01-15T11:01:41;19.08;;;8.35;;
32613;SDS011;19031;51.400;6.770;2024-01-15T11:04:08;9.02;;;5.68;;
32613;SDS011;19031;51.400;6.770;2024-01-15T11:06:41;11.32;;;6.30;;
32613;SDS011;19031;51.400;6.770;2024-01-15T11:09:09;12.25;;;6.18;;
32613;SDS011;19031;51.400;6.770;2024-01-15T11:11:35;10.82;;;5.90;;
32613;SDS011;19031;51.400;6.770;2024-01-15T11:14:04;10.23;;;5.78;;
32613;SDS011;19031;51.400;6.770;2024-01-15T11:19:46;9.88;;;5.55;;
32613;SDS011;19031;51.400;6.770;2024-01-15T11:25:02;9.98;;;6.10;;
32613;SDS011;19031;51.400;6.770;2024-01-15T11:30:08;8.32;;;5.35;;
32613;SDS011;19031;51.400;6.770;2024-01-15T11:32:35;11.48;;;5.72;;
32613;SDS011;19031;51.400;6.770;2024-01-15T11:35:01;8.95;;;4.50;;
32613;SDS011;19031;51.400;6.770;2024-01-15T11:37:28;7.70;;;3.95;;
32613;SDS011;19031;51.400;6.770;2024-01-15T11:40:14;8.65;;;3.60;;
32613;SDS011;19031;51.400;6.770;2024-01-15T11:42:46;9.57;;;4.68;;
32613;SDS011;19031;51.400;6.770;2024-01-15T11:45:19;13.82;;;5.40;;
32613;SDS011;19031;51.400;6.770;2024-01-15T11:50:35;10.50;;;3.80;;
32613;SDS011;19031;51.400;6.770;2024-01-15T11:53:16;7.90;;;4.28;;
32613;SDS011;19031;51.400;6.770;2024-01-15T11:55:46;16.10;;;5.70;;
32613;SDS011;19031;51.400;6.770;2024-01-15T11:58:13;19.73;;;4.80;;
32613;SDS011;19031;51.400;6.770;2024-01-15T12:00:43;11.35;;;5.43;;
32613;SDS011;19031;51.400;6.770;2024-01-15T12:03:10;16.92;;;5.97;;
32613;SDS011;19031;51.400;6.770;2024-01-15T12:05:39;9.15;;;4.35;;
32613;SDS011;19031;51.400;6.770;2024-01-15T12:08:06;12.75;;;4.18;;
32613;SDS011;19031;51.400;6.770;2024-01-15T12:10:35;7.70;;;3.05;;
32613;SDS011;19031;51.400;6.770;2024-01-15T12:13:04;13.85;;;4.38;;
32613;SDS011;19031;51.400;6.770;2024-01-15T12:15:34;11.48;;;3.60;;
32613;SDS011;19031;51.400;6.770;2024-01-15T12:18:00;8.40;;;4.28;;
32613;SDS011;19031;51.400;6.770;2024-01-15T12:20:30;9.35;;;3.78;;
32613;SDS011;19031;51.400;6.770;2024-01-15T12:22:56;10.20;;;3.38;;
32613;SDS011;19031;51.400;6.770;2024-01-15T12:25:23;5.15;;;2.65;;
32613;SDS011;19031;51.400;6.770;2024-01-15T12:27:49;8.05;;;3.30;;
32613;SDS011;19031;51.400;6.770;2024-01-15T12:30:16;6.50;;;3.30;;
32613;SDS011;19031;51.400;6.770;2024-01-15T12:32:41;9.35;;;3.08;;
32613;SDS011;19031;51.400;6.770;2024-01-15T12:35:08;8.65;;;3.67;;
32613;SDS011;19031;51.400;6.770;2024-01-15T12:37:35;4.75;;;2.65;;
32613;SDS011;19031;51.400;6.770;2024-01-15T12:40:02;6.07;;;3.05;;
32613;SDS011;19031;51.400;6.770;2024-01-15T12:42:29;6.32;;;3.38;;
32613;SDS011;19031;51.400;6.770;2024-01-15T12:44:58;8.35;;;3.17;;
32613;SDS011;19031;51.400;6.770;2024-01-15T12:47:24;10.52;;;2.40;;
32613;SDS011;19031;51.400;6.770;2024-01-15T12:49:51;5.20;;;2.72;;
32613;SDS011;19031;51.400;6.770;2024-01-15T12:52:20;8.93;;;4.10;;
32613;SDS011;19031;51.400;6.770;2024-01-15T12:54:49;6.90;;;3.20;;
32613;SDS011;19031;51.400;6.770;2024-01-15T12:57:15;8.38;;;4.07;;
32613;SDS011;19031;51.400;6.770;2024-01-15T12:59:41;8.60;;;3.20;;
32613;SDS011;19031;51.400;6.770;2024-01-15T13:02:06;10.48;;;3.55;;
32613;SDS011;19031;51.400;6.770;2024-01-15T13:04:32;9.00;;;3.45;;
32613;SDS011;19031;51.400;6.770;2024-01-15T13:06:57;7.60;;;3.33;;
32613;SDS011;19031;51.400;6.770;2024-01-15T13:09:23;11.98;;;3.38;;
32613;SDS011;19031;51.400;6.770;2024-01-15T13:11:48;5.25;;;3.67;;
32613;SDS011;19031;51.400;6.770;2024-01-15T13:14:14;11.65;;;4.40;;
32613;SDS011;19031;51.400;6.770;2024-01-15T13:16:40;11.50;;;4.35;;
32613;SDS011;19031;51.400;6.770;2024-01-15T13:19:07;8.63;;;3.95;;
32613;SDS011;19031;51.400;6.770;2024-01-15T13:21:33;8.00;;;4.43;;
32613;SDS011;19031;51.400;6.770;2024-01-15T13:23:59;9.13;;;4.10;;
32613;SDS011;19031;51.400;6.770;2024-01-15T13:26:25;8.73;;;4.30;;
32613;SDS011;19031;51.400;6.770;2024-01-15T13:28:50;6.85;;;4.10;;
32613;SDS011;19031;51.400;6.770;2024-01-15T13:31:16;7.95;;;4.07;;
32613;SDS011;19031;51.400;6.770;2024-01-15T13:33:41;11.40;;;4.47;;
32613;SDS011;19031;51.400;6.770;2024-01-15T13:36:07;11.05;;;4.70;;
32613;SDS011;19031;51.400;6.770;2024-01-15T13:38:35;6.63;;;4.63;;
32613;SDS011;19031;51.400;6.770;2024-01-15T13:41:04;6.75;;;4.00;;
32613;SDS011;19031;51.400;6.770;2024-01-15T13:43:31;5.68;;;3.88;;
32613;SDS011;19031;51.400;6.770;2024-01-15T13:45:57;7.20;;;3.53;;
32613;SDS011;19031;51.400;6.770;2024-01-15T13:48:22;11.40;;;4.80;;
32613;SDS011;19031;51.400;6.770;2024-01-15T13:50:48;9.73;;;3.70;;
32613;SDS011;19031;51.400;6.770;2024-01-15T13:53:15;9.05;;;3.47;;
32613;SDS011;19031;51.400;6.770;2024-01-15T13:55:41;9.77;;;3.20;;
32613;SDS011;19031;51.400;6.770;2024-01-15T13:58:07;7.18;;;3.20;;
32613;SDS011;19031;51.400;6.770;2024-01-15T14:00:32;3.20;;;2.38;;
32613;SDS011;19031;51.400;6.770;2024-01-15T14:02:58;6.75;;;2.08;;
32613;SDS011;19031;51.400;6.770;2024-01-15T14:05:24;6.20;;;2.28;;
32613;SDS011;19031;51.400;6.770;2024-01-15T14:07:49;7.10;;;2.95;;
32613;SDS011;19031;51.400;6.770;2024-01-15T14:10:15;4.88;;;2.33;;
32613;SDS011;19031;51.400;6.770;2024-01-15T14:12:40;9.77;;;2.83;;
32613;SDS011;19031;51.400;6.770;2024-01-15T14:15:06;5.05;;;1.67;;
32613;SDS011;19031;51.400;6.770;2024-01-15T14:17:32;2.83;;;1.60;;
32613;SDS011;19031;51.400;6.770;2024-01-15T14:19:58;9.00;;;2.83;;
32613;SDS011;19031;51.400;6.770;2024-01-15T14:22:23;4.93;;;2.42;;
32613;SDS011;19031;51.400;6.770;2024-01-15T14:24:49;6.72;;;2.53;;
32613;SDS011;19031;51.400;6.770;2024-01-15T14:27:15;6.60;;;2.95;;
32613;SDS011;19031;51.400;6.770;2024-01-15T14:29:42;6.78;;;1.80;;
32613;SDS011;19031;51.400;6.770;2024-01-15T14:32:07;5.68;;;1.73;;
32613;SDS011;19031;51.400;6.770;2024-01-15T14:34:33;5.70;;;2.10;;
32613;SDS011;19031;51.400;6.770;2024-01-15T14:37:01;7.93;;;2.15;;
32613;SDS011;19031;51.400;6.770;2024-01-15T14:39:26;6.78;;;3.28;;